sensor_id;sensor_type;location;lat;lon;timestamp;P1;durP1;ratioP1;P2;durP2;ratioP2
76892;SDS011;65854;51.466;7.260;2022-12-18T00:01:03;48.40;;;21.00;;
76892;SDS011;65854;51.466;7.260;2022-12-18T00:03:33;43.97;;;19.90;;
76892;SDS011;65854;51.466;7.260;2022-12-18T00:05:59;48.67;;;21.95;;
76892;SDS011;65854;51.466;7.260;2022-12-18T00:08:25;52.55;;;22.30;;
76892;SDS011;65854;51.466;7.260;2022-12-18T00:10:50;53.80;;;23.13;;
76892;SDS011;65854;51.466;7.260;2022-12-18T00:13:16;50.15;;;21.73;;
76892;SDS011;65854;51.466;7.260;2022-12-18T00:15:41;48.73;;;21.87;;
76892;SDS011;65854;51.466;7.260;2022-12-18T00:18:07;48.70;;;20.80;;
76892;SDS011;65854;51.466;7.260;2022-12-18T00:23:02;40.00;;;17.50;;
76892;SDS011;65854;51.466;7.260;2022-12-18T00:25:28;34.88;;;16.70;;
76892;SDS011;65854;51.466;7.260;2022-12-18T00:27:53;35.70;;;16.23;;
76892;SDS011;65854;51.466;7.260;2022-12-18T00:30:19;40.95;;;16.70;;
76892;SDS011;65854;51.466;7.260;2022-12-18T00:32:44;34.80;;;15.83;;
76892;SDS011;65854;51.466;7.260;2022-12-18T00:35:10;35.63;;;14.97;;
76892;SDS011;65854;51.466;7.260;2022-12-18T00:37:36;35.30;;;15.57;;
76892;SDS011;65854;51.466;7.260;2022-12-18T00:40:02;39.40;;;16.83;;
76892;SDS011;65854;51.466;7.260;2022-12-18T00:42:28;37.38;;;17.23;;
76892;SDS011;65854;51.466;7.260;2022-12-18T00:45:12;43.50;;;18.33;;
76892;SDS011;65854;51.466;7.260;2022-12-18T00:47:38;42.93;;;18.53;;
76892;SDS011;65854;51.466;7.260;2022-12-18T00:50:03;42.97;;;18.40;;
76892;SDS011;65854;51.466;7.260;2022-12-18T00:52:29;44.85;;;19.85;;
76892;SDS011;65854;51.466;7.260;2022-12-18T00:54:55;38.13;;;17.93;;
76892;SDS011;65854;51.466;7.260;2022-12-18T00:57:20;31.37;;;13.83;;
76892;SDS011;65854;51.466;7.260;2022-12-18T00:59:46;34.65;;;15.63;;
76892;SDS011;65854;51.466;7.260;2022-12-18T01:02:11;42.77;;;18.63;;
76892;SDS011;65854;51.466;7.260;2022-12-18T01:04:37;40.77;;;18.33;;
76892;SDS011;65854;51.466;7.260;2022-12-18T01:07:03;43.65;;;20.50;;
76892;SDS011;65854;51.466;7.260;2022-12-18T01:09:28;47.33;;;20.00;;
76892;SDS011;65854;51.466;7.260;2022-12-18T01:11:54;49.10;;;20.00;;
76892;SDS011;65854;51.466;7.260;2022-12-18T01:14:19;33.88;;;14.98;;
76892;SDS011;65854;51.466;7.260;2022-12-18T01:16:45;28.80;;;12.00;;
76892;SDS011;65854;51.466;7.260;2022-12-18T01:19:11;27.42;;;11.57;;
76892;SDS011;65854;51.466;7.260;2022-12-18T01:21:36;26.47;;;11.20;;
76892;SDS011;65854;51.466;7.260;2022-12-18T01:24:02;25.83;;;11.00;;
76892;SDS011;65854;51.466;7.260;2022-12-18T01:26:28;28.35;;;11.77;;
76892;SDS011;65854;51.466;7.260;2022-12-18T01:28:54;30.08;;;13.30;;
76892;SDS011;65854;51.466;7.260;2022-12-18T01:31:26;29.10;;;12.33;;
76892;SDS011;65854;51.466;7.260;2022-12-18T01:33:53;33.38;;;14.00;;
76892;SDS011;65854;51.466;7.260;2022-12-18T01:36:23;33.90;;;15.00;;
76892;SDS011;65854;51.466;7.260;2022-12-18T01:38:51;42.65;;;18.42;;
76892;SDS011;65854;51.466;7.260;2022-12-18T01:41:19;41.70;;;18.92;;
76892;SDS011;65854;51.466;7.260;2022-12-18T01:43:54;42.53;;;17.50;;
76892;SDS011;65854;51.466;7.260;2022-12-18T01:46:24;40.35;;;18.17;;
76892;SDS011;65854;51.466;7.260;2022-12-18T01:48:55;38.13;;;16.83;;
76892;SDS011;65854;51.466;7.260;2022-12-18T01:51:22;36.30;;;16.75;;
76892;SDS011;65854;51.466;7.260;2022-12-18T01:53:48;41.75;;;16.45;;
76892;SDS011;65854;51.466;7.260;2022-12-18T01:56:15;38.23;;;16.20;;
76892;SDS011;65854;51.466;7.260;2022-12-18T02:01:21;39.70;;;16.98;;
76892;SDS011;65854;51.466;7.260;2022-12-18T02:03:48;35.25;;;16.05;;
76892;SDS011;65854;51.466;7.260;2022-12-18T02:11:40;34.58;;;14.48;;
76892;SDS011;65854;51.466;7.260;2022-12-18T02:14:59;32.58;;;14.05;;
76892;SDS011;65854;51.466;7.260;2022-12-18T02:17:14;34.83;;;13.33;;
76892;SDS011;65854;51.466;7.260;2022-12-18T02:19:46;32.15;;;13.95;;
76892;SDS011;65854;51.466;7.260;2022-12-18T02:22:27;37.55;;;16.30;;
76892;SDS011;65854;51.466;7.260;2022-12-18T02:27:43;38.20;;;16.98;;
76892;SDS011;65854;51.466;7.260;2022-12-18T02:30:11;35.27;;;14.93;;
76892;SDS011;65854;51.466;7.260;2022-12-18T02:32:38;35.33;;;15.60;;
76892;SDS011;65854;51.466;7.260;2022-12-18T02:35:07;34.78;;;15.05;;
76892;SDS011;65854;51.466;7.260;2022-12-18T02:37:36;32.40;;;14.75;;
76892;SDS011;65854;51.466;7.260;2022-12-18T02:40:05;30.75;;;13.65;;
76892;SDS011;65854;51.466;7.260;2022-12-18T02:42:33;30.80;;;12.43;;
76892;SDS011;65854;51.466;7.260;2022-12-18T02:44:58;18.92;;;9.35;;
76892;SDS011;65854;51.466;7.260;2022-12-18T02:47:25;20.43;;;7.97;;
76892;SDS011;65854;51.466;7.260;2022-12-18T02:49:59;13.25;;;4.95;;
76892;SDS011;65854;51.466;7.260;2022-12-18T02:55:37;10.07;;;3.83;;
76892;SDS011;65854;51.466;7.260;2022-12-18T03:01:02;9.02;;;3.40;;
76892;SDS011;65854;51.466;7.260;2022-12-18T03:06:33;10.25;;;3.30;;
76892;SDS011;65854;51.466;7.260;2022-12-18T03:09:06;9.50;;;3.50;;
76892;SDS011;65854;51.466;7.260;2022-12-18T03:11:36;8.93;;;2.83;;
76892;SDS011;65854;51.466;7.260;2022-12-18T03:14:23;9.85;;;3.20;;
76892;SDS011;65854;51.466;7.260;2022-12-18T03:16:53;8.13;;;2.63;;
76892;SDS011;65854;51.466;7.260;2022-12-18T03:19:22;8.77;;;3.13;;
76892;SDS011;65854;51.466;7.260;2022-12-18T03:21:53;7.67;;;3.10;;
76892;SDS011;65854;51.466;7.260;2022-12-18T03:24:21;7.53;;;2.90;;
76892;SDS011;65854;51.466;7.260;2022-12-18T03:26:50;9.35;;;3.20;;
76892;SDS011;65854;51.466;7.260;2022-12-18T03:29:21;8.35;;;2.92;;
76892;SDS011;65854;51.466;7.260;2022-12-18T03:31:57;8.65;;;3.10;;
76892;SDS011;65854;51.466;7.260;2022-12-18T03:34:30;7.10;;;3.00;;
76892;SDS011;65854;51.466;7.260;2022-12-18T03:37:01;7.22;;;2.65;;
76892;SDS011;65854;51.466;7.260;2022-12-18T03:39:26;8.35;;;3.00;;
76892;SDS011;65854;51.466;7.260;2022-12-18T03:42:25;7.80;;;2.80;;
76892;SDS011;65854;51.466;7.260;2022-12-18T03:45:05;8.27;;;2.85;;
76892;SDS011;65854;51.466;7.260;2022-12-18T03:47:45;8.57;;;3.15;;
76892;SDS011;65854;51.466;7.260;2022-12-18T03:56:04;9.40;;;2.60;;
76892;SDS011;65854;51.466;7.260;2022-12-18T03:58:31;7.35;;;2.83;;
76892;SDS011;65854;51.466;7.260;2022-12-18T04:01:00;7.40;;;2.90;;
76892;SDS011;65854;51.466;7.260;2022-12-18T04:03:28;7.97;;;2.78;;
76892;SDS011;65854;51.466;7.260;2022-12-18T04:05:56;7.57;;;2.50;;
76892;SDS011;65854;51.466;7.260;2022-12-18T04:08:24;7.28;;;2.65;;
76892;SDS011;65854;51.466;7.260;2022-12-18T04:10:50;8.07;;;2.90;;
76892;SDS011;65854;51.466;7.260;2022-12-18T04:13:23;8.48;;;3.13;;
76892;SDS011;65854;51.466;7.260;2022-12-18T04:15:52;8.90;;;3.27;;
76892;SDS011;65854;51.466;7.260;2022-12-18T04:18:18;8.52;;;3.22;;
76892;SDS011;65854;51.466;7.260;2022-12-18T04:20:44;10.13;;;3.20;;
76892;SDS011;65854;51.466;7.260;2022-12-18T04:23:09;9.73;;;3.30;;
76892;SDS011;65854;51.466;7.260;2022-12-18T04:25:35;10.50;;;3.40;;
76892;SDS011;65854;51.466;7.260;2022-12-18T04:28:00;9.23;;;3.53;;
76892;SDS011;65854;51.466;7.260;2022-12-18T04:30:26;10.07;;;3.63;;
76892;SDS011;65854;51.466;7.260;2022-12-18T04:32:51;9.60;;;3.57;;
76892;SDS011;65854;51.466;7.260;2022-12-18T04:35:17;9.43;;;3.55;;
76892;SDS011;65854;51.466;7.260;2022-12-18T04:37:43;11.80;;;4.47;;
76892;SDS011;65854;51.466;7.260;2022-12-18T04:40:08;9.60;;;4.20;;
76892;SDS011;65854;51.466;7.260;2022-12-18T04:42:34;13.00;;;4.63;;
76892;SDS011;65854;51.466;7.260;2022-12-18T04:45:00;11.80;;;4.97;;
76892;SDS011;65854;51.466;7.260;2022-12-18T04:47:25;13.57;;;5.30;;
76892;SDS011;65854;51.466;7.260;2022-12-18T04:49:51;14.80;;;5.73;;
76892;SDS011;65854;51.466;7.260;2022-12-18T04:52:16;14.37;;;6.07;;
76892;SDS011;65854;51.466;7.260;2022-12-18T04:54:42;18.42;;;7.40;;
76892;SDS011;65854;51.466;7.260;2022-12-18T04:57:07;23.67;;;9.77;;
76892;SDS011;65854;51.466;7.260;2022-12-18T04:59:33;36.57;;;16.47;;
76892;SDS011;65854;51.466;7.260;2022-12-18T05:01:59;36.47;;;16.60;;
76892;SDS011;65854;51.466;7.260;2022-12-18T05:04:24;43.50;;;19.33;;
76892;SDS011;65854;51.466;7.260;2022-12-18T05:06:50;40.20;;;19.63;;
76892;SDS011;65854;51.466;7.260;2022-12-18T05:09:15;40.87;;;19.23;;
76892;SDS011;65854;51.466;7.260;2022-12-18T05:11:41;46.60;;;19.80;;
76892;SDS011;65854;51.466;7.260;2022-12-18T05:14:06;47.73;;;20.40;;
76892;SDS011;65854;51.466;7.260;2022-12-18T05:16:32;47.33;;;20.90;;
76892;SDS011;65854;51.466;7.260;2022-12-18T05:18:57;46.47;;;20.75;;
76892;SDS011;65854;51.466;7.260;2022-12-18T05:21:23;43.87;;;20.57;;
76892;SDS011;65854;51.466;7.260;2022-12-18T05:23:48;44.30;;;19.40;;
76892;SDS011;65854;51.466;7.260;2022-12-18T05:26:15;43.63;;;19.55;;
76892;SDS011;65854;51.466;7.260;2022-12-18T05:28:42;45.80;;;20.00;;
76892;SDS011;65854;51.466;7.260;2022-12-18T05:31:09;41.17;;;18.63;;
76892;SDS011;65854;51.466;7.260;2022-12-18T05:33:35;29.80;;;12.32;;
76892;SDS011;65854;51.466;7.260;2022-12-18T05:36:03;28.67;;;13.13;;
76892;SDS011;65854;51.466;7.260;2022-12-18T05:38:31;27.98;;;12.45;;
76892;SDS011;65854;51.466;7.260;2022-12-18T05:40:57;29.17;;;12.40;;
76892;SDS011;65854;51.466;7.260;2022-12-18T05:43:23;23.73;;;10.60;;
76892;SDS011;65854;51.466;7.260;2022-12-18T05:45:50;24.48;;;9.93;;
76892;SDS011;65854;51.466;7.260;2022-12-18T05:48:16;21.80;;;9.77;;
76892;SDS011;65854;51.466;7.260;2022-12-18T05:50:43;32.92;;;14.43;;
76892;SDS011;65854;51.466;7.260;2022-12-18T05:53:10;35.20;;;15.18;;
76892;SDS011;65854;51.466;7.260;2022-12-18T05:55:38;27.98;;;13.32;;
76892;SDS011;65854;51.466;7.260;2022-12-18T05:58:05;29.10;;;13.18;;
76892;SDS011;65854;51.466;7.260;2022-12-18T06:00:32;29.63;;;12.77;;
76892;SDS011;65854;51.466;7.260;2022-12-18T06:02:59;34.78;;;15.32;;
76892;SDS011;65854;51.466;7.260;2022-12-18T06:05:25;37.03;;;16.17;;
76892;SDS011;65854;51.466;7.260;2022-12-18T06:07:51;41.55;;;17.85;;
76892;SDS011;65854;51.466;7.260;2022-12-18T06:10:17;41.10;;;18.73;;
76892;SDS011;65854;51.466;7.260;2022-12-18T06:12:42;41.45;;;18.75;;
76892;SDS011;65854;51.466;7.260;2022-12-18T06:15:08;41.08;;;18.30;;
76892;SDS011;65854;51.466;7.260;2022-12-18T06:17:34;40.72;;;18.73;;
76892;SDS011;65854;51.466;7.260;2022-12-18T06:20:00;47.03;;;20.13;;
76892;SDS011;65854;51.466;7.260;2022-12-18T06:22:26;45.75;;;20.67;;
76892;SDS011;65854;51.466;7.260;2022-12-18T06:24:52;44.88;;;20.10;;
76892;SDS011;65854;51.466;7.260;2022-12-18T06:27:18;47.03;;;22.03;;
76892;SDS011;65854;51.466;7.260;2022-12-18T06:29:44;46.42;;;20.50;;
76892;SDS011;65854;51.466;7.260;2022-12-18T06:32:10;47.05;;;20.80;;
76892;SDS011;65854;51.466;7.260;2022-12-18T06:34:39;43.67;;;19.87;;
76892;SDS011;65854;51.466;7.260;2022-12-18T06:37:04;42.22;;;19.58;;
76892;SDS011;65854;51.466;7.260;2022-12-18T06:39:30;43.93;;;18.90;;
76892;SDS011;65854;51.466;7.260;2022-12-18T06:41:56;46.38;;;20.38;;
76892;SDS011;65854;51.466;7.260;2022-12-18T06:44:21;43.30;;;20.00;;
76892;SDS011;65854;51.466;7.260;2022-12-18T06:46:47;44.80;;;19.33;;
76892;SDS011;65854;51.466;7.260;2022-12-18T06:49:12;44.67;;;18.83;;
76892;SDS011;65854;51.466;7.260;2022-12-18T06:51:38;39.73;;;17.20;;
76892;SDS011;65854;51.466;7.260;2022-12-18T06:54:04;40.63;;;17.88;;
76892;SDS011;65854;51.466;7.260;2022-12-18T06:56:30;41.20;;;18.33;;
76892;SDS011;65854;51.466;7.260;2022-12-18T06:58:55;44.30;;;18.58;;
76892;SDS011;65854;51.466;7.260;2022-12-18T07:01:21;45.93;;;19.33;;
76892;SDS011;65854;51.466;7.260;2022-12-18T07:03:51;43.53;;;17.70;;
76892;SDS011;65854;51.466;7.260;2022-12-18T07:06:19;43.33;;;19.40;;
76892;SDS011;65854;51.466;7.260;2022-12-18T07:08:46;42.00;;;19.83;;
76892;SDS011;65854;51.466;7.260;2022-12-18T07:11:13;45.35;;;20.70;;
76892;SDS011;65854;51.466;7.260;2022-12-18T07:13:40;43.57;;;19.60;;
76892;SDS011;65854;51.466;7.260;2022-12-18T07:16:07;45.25;;;20.23;;
76892;SDS011;65854;51.466;7.260;2022-12-18T07:18:34;48.45;;;21.55;;
76892;SDS011;65854;51.466;7.260;2022-12-18T07:21:07;45.80;;;20.05;;
76892;SDS011;65854;51.466;7.260;2022-12-18T07:23:34;42.53;;;18.77;;
76892;SDS011;65854;51.466;7.260;2022-12-18T07:26:04;34.70;;;14.55;;
76892;SDS011;65854;51.466;7.260;2022-12-18T07:28:35;37.28;;;16.23;;
76892;SDS011;65854;51.466;7.260;2022-12-18T07:31:02;35.63;;;15.50;;
76892;SDS011;65854;51.466;7.260;2022-12-18T07:33:33;37.22;;;16.30;;
76892;SDS011;65854;51.466;7.260;2022-12-18T07:36:02;38.93;;;17.20;;
76892;SDS011;65854;51.466;7.260;2022-12-18T07:38:30;38.53;;;18.35;;
76892;SDS011;65854;51.466;7.260;2022-12-18T07:41:02;43.65;;;19.75;;
76892;SDS011;65854;51.466;7.260;2022-12-18T07:43:33;39.95;;;18.92;;
76892;SDS011;65854;51.466;7.260;2022-12-18T07:45:59;44.97;;;18.45;;
76892;SDS011;65854;51.466;7.260;2022-12-18T07:48:25;41.67;;;17.73;;
76892;SDS011;65854;51.466;7.260;2022-12-18T07:50:51;30.38;;;13.65;;
76892;SDS011;65854;51.466;7.260;2022-12-18T07:53:17;27.07;;;12.70;;
76892;SDS011;65854;51.466;7.260;2022-12-18T07:55:42;39.67;;;17.23;;
76892;SDS011;65854;51.466;7.260;2022-12-18T07:58:08;37.33;;;17.07;;
76892;SDS011;65854;51.466;7.260;2022-12-18T08:00:34;46.00;;;18.38;;
76892;SDS011;65854;51.466;7.260;2022-12-18T08:03:00;39.80;;;18.05;;
76892;SDS011;65854;51.466;7.260;2022-12-18T08:05:26;40.10;;;18.35;;
76892;SDS011;65854;51.466;7.260;2022-12-18T08:07:52;41.97;;;18.63;;
76892;SDS011;65854;51.466;7.260;2022-12-18T08:10:18;39.83;;;17.60;;
76892;SDS011;65854;51.466;7.260;2022-12-18T08:12:44;36.75;;;16.45;;
76892;SDS011;65854;51.466;7.260;2022-12-18T08:15:10;38.27;;;16.60;;
76892;SDS011;65854;51.466;7.260;2022-12-18T08:17:38;38.13;;;16.60;;
76892;SDS011;65854;51.466;7.260;2022-12-18T08:20:03;38.80;;;17.15;;
76892;SDS011;65854;51.466;7.260;2022-12-18T08:22:29;40.57;;;18.63;;
76892;SDS011;65854;51.466;7.260;2022-12-18T08:24:55;43.38;;;19.23;;
76892;SDS011;65854;51.466;7.260;2022-12-18T08:27:20;41.33;;;18.43;;
76892;SDS011;65854;51.466;7.260;2022-12-18T08:29:46;46.40;;;19.23;;
76892;SDS011;65854;51.466;7.260;2022-12-18T08:32:11;42.33;;;18.88;;
76892;SDS011;65854;51.466;7.260;2022-12-18T08:34:37;42.03;;;18.50;;
76892;SDS011;65854;51.466;7.260;2022-12-18T08:37:03;43.77;;;19.40;;
76892;SDS011;65854;51.466;7.260;2022-12-18T08:39:28;43.50;;;18.42;;
76892;SDS011;65854;51.466;7.260;2022-12-18T08:41:54;38.07;;;18.10;;
76892;SDS011;65854;51.466;7.260;2022-12-18T08:44:38;38.75;;;17.67;;
76892;SDS011;65854;51.466;7.260;2022-12-18T08:47:04;38.93;;;17.77;;
76892;SDS011;65854;51.466;7.260;2022-12-18T08:49:30;30.67;;;14.48;;
76892;SDS011;65854;51.466;7.260;2022-12-18T08:51:56;25.53;;;10.10;;
76892;SDS011;65854;51.466;7.260;2022-12-18T08:54:22;24.23;;;9.75;;
76892;SDS011;65854;51.466;7.260;2022-12-18T08:56:48;22.13;;;9.40;;
76892;SDS011;65854;51.466;7.260;2022-12-18T08:59:14;23.67;;;9.65;;
76892;SDS011;65854;51.466;7.260;2022-12-18T09:01:41;16.90;;;6.53;;
76892;SDS011;65854;51.466;7.260;2022-12-18T09:04:07;18.27;;;7.47;;
76892;SDS011;65854;51.466;7.260;2022-12-18T09:06:34;24.50;;;11.47;;
76892;SDS011;65854;51.466;7.260;2022-12-18T09:09:00;32.28;;;14.07;;
76892;SDS011;65854;51.466;7.260;2022-12-18T09:11:26;34.17;;;15.13;;
76892;SDS011;65854;51.466;7.260;2022-12-18T09:13:53;29.67;;;12.97;;
76892;SDS011;65854;51.466;7.260;2022-12-18T09:16:19;20.20;;;8.93;;
76892;SDS011;65854;51.466;7.260;2022-12-18T09:18:46;16.95;;;6.72;;
76892;SDS011;65854;51.466;7.260;2022-12-18T09:21:13;13.25;;;5.22;;
76892;SDS011;65854;51.466;7.260;2022-12-18T09:23:42;11.68;;;4.60;;
76892;SDS011;65854;51.466;7.260;2022-12-18T09:26:08;12.03;;;4.00;;
76892;SDS011;65854;51.466;7.260;2022-12-18T09:28:34;10.85;;;3.80;;
76892;SDS011;65854;51.466;7.260;2022-12-18T09:31:03;8.38;;;3.10;;
76892;SDS011;65854;51.466;7.260;2022-12-18T09:33:31;10.30;;;3.83;;
76892;SDS011;65854;51.466;7.260;2022-12-18T09:35:57;8.90;;;3.25;;
76892;SDS011;65854;51.466;7.260;2022-12-18T09:38:22;7.67;;;2.77;;
76892;SDS011;65854;51.466;7.260;2022-12-18T09:40:52;8.55;;;2.80;;
76892;SDS011;65854;51.466;7.260;2022-12-18T09:43:43;7.37;;;2.67;;
76892;SDS011;65854;51.466;7.260;2022-12-18T09:46:15;7.35;;;2.30;;
76892;SDS011;65854;51.466;7.260;2022-12-18T09:48:46;6.55;;;2.25;;
76892;SDS011;65854;51.466;7.260;2022-12-18T09:51:15;6.45;;;2.10;;
76892;SDS011;65854;51.466;7.260;2022-12-18T09:54:30;7.05;;;2.08;;
76892;SDS011;65854;51.466;7.260;2022-12-18T09:57:00;7.10;;;1.97;;
76892;SDS011;65854;51.466;7.260;2022-12-18T09:59:36;6.38;;;1.92;;
76892;SDS011;65854;51.466;7.260;2022-12-18T10:02:14;5.43;;;1.58;;
76892;SDS011;65854;51.466;7.260;2022-12-18T10:04:52;5.90;;;1.70;;
76892;SDS011;65854;51.466;7.260;2022-12-18T10:07:49;6.47;;;1.98;;
76892;SDS011;65854;51.466;7.260;2022-12-18T10:18:50;5.83;;;1.77;;
76892;SDS011;65854;51.466;7.260;2022-12-18T10:21:31;6.43;;;1.95;;
76892;SDS011;65854;51.466;7.260;2022-12-18T10:26:48;6.35;;;1.75;;
76892;SDS011;65854;51.466;7.260;2022-12-18T10:29:14;7.00;;;1.90;;
76892;SDS011;65854;51.466;7.260;2022-12-18T10:31:41;6.75;;;1.98;;
76892;SDS011;65854;51.466;7.260;2022-12-18T10:34:10;6.50;;;1.60;;
76892;SDS011;65854;51.466;7.260;2022-12-18T10:36:39;5.95;;;2.00;;
76892;SDS011;65854;51.466;7.260;2022-12-18T10:39:18;5.85;;;2.10;;
76892;SDS011;65854;51.466;7.260;2022-12-18T10:41:48;6.53;;;1.85;;
76892;SDS011;65854;51.466;7.260;2022-12-18T10:44:17;6.17;;;1.93;;
76892;SDS011;65854;51.466;7.260;2022-12-18T10:46:46;6.28;;;1.92;;
76892;SDS011;65854;51.466;7.260;2022-12-18T10:49:21;5.38;;;1.65;;
76892;SDS011;65854;51.466;7.260;2022-12-18T10:52:03;7.00;;;2.10;;
76892;SDS011;65854;51.466;7.260;2022-12-18T10:54:32;8.13;;;1.88;;
76892;SDS011;65854;51.466;7.260;2022-12-18T10:57:15;6.95;;;1.70;;
76892;SDS011;65854;51.466;7.260;2022-12-18T10:59:56;8.02;;;1.77;;
76892;SDS011;65854;51.466;7.260;2022-12-18T11:02:34;6.93;;;2.00;;
76892;SDS011;65854;51.466;7.260;2022-12-18T11:05:04;5.87;;;1.93;;
76892;SDS011;65854;51.466;7.260;2022-12-18T11:07:58;5.72;;;1.85;;
76892;SDS011;65854;51.466;7.260;2022-12-18T11:10:32;6.85;;;2.60;;
76892;SDS011;65854;51.466;7.260;2022-12-18T11:13:17;6.57;;;2.03;;
76892;SDS011;65854;51.466;7.260;2022-12-18T11:15:45;6.88;;;2.50;;
76892;SDS011;65854;51.466;7.260;2022-12-18T11:18:31;6.70;;;1.80;;
76892;SDS011;65854;51.466;7.260;2022-12-18T11:21:08;5.78;;;1.95;;
76892;SDS011;65854;51.466;7.260;2022-12-18T11:23:36;6.55;;;2.28;;
76892;SDS011;65854;51.466;7.260;2022-12-18T11:26:10;5.68;;;1.90;;
76892;SDS011;65854;51.466;7.260;2022-12-18T11:28:49;5.78;;;2.10;;
76892;SDS011;65854;51.466;7.260;2022-12-18T11:33:44;6.50;;;1.90;;
76892;SDS011;65854;51.466;7.260;2022-12-18T11:36:32;6.67;;;2.10;;
76892;SDS011;65854;51.466;7.260;2022-12-18T11:39:07;5.80;;;1.98;;
76892;SDS011;65854;51.466;7.260;2022-12-18T11:41:47;6.97;;;2.28;;
76892;SDS011;65854;51.466;7.260;2022-12-18T11:44:49;7.85;;;2.28;;
76892;SDS011;65854;51.466;7.260;2022-12-18T11:50:19;6.70;;;2.30;;
76892;SDS011;65854;51.466;7.260;2022-12-18T11:52:48;6.57;;;2.10;;
76892;SDS011;65854;51.466;7.260;2022-12-18T11:55:15;6.90;;;2.08;;
76892;SDS011;65854;51.466;7.260;2022-12-18T11:57:57;6.57;;;1.93;;
76892;SDS011;65854;51.466;7.260;2022-12-18T12:00:47;7.85;;;2.20;;
76892;SDS011;65854;51.466;7.260;2022-12-18T12:09:11;6.78;;;2.28;;
76892;SDS011;65854;51.466;7.260;2022-12-18T12:17:42;8.88;;;2.70;;
76892;SDS011;65854;51.466;7.260;2022-12-18T12:23:23;7.80;;;2.30;;
76892;SDS011;65854;51.466;7.260;2022-12-18T12:26:42;7.43;;;2.60;;
76892;SDS011;65854;51.466;7.260;2022-12-18T12:28:59;8.43;;;2.50;;
76892;SDS011;65854;51.466;7.260;2022-12-18T12:31:46;6.65;;;2.50;;
76892;SDS011;65854;51.466;7.260;2022-12-18T12:34:23;6.63;;;2.00;;
76892;SDS011;65854;51.466;7.260;2022-12-18T12:39:44;7.43;;;2.13;;
76892;SDS011;65854;51.466;7.260;2022-12-18T12:45:22;7.45;;;2.13;;
76892;SDS011;65854;51.466;7.260;2022-12-18T12:48:01;6.95;;;2.40;;
76892;SDS011;65854;51.466;7.260;2022-12-18T12:50:28;7.78;;;2.45;;
76892;SDS011;65854;51.466;7.260;2022-12-18T12:52:59;7.20;;;2.60;;
76892;SDS011;65854;51.466;7.260;2022-12-18T12:55:31;8.13;;;2.65;;
76892;SDS011;65854;51.466;7.260;2022-12-18T12:58:05;8.70;;;2.65;;
76892;SDS011;65854;51.466;7.260;2022-12-18T13:00:41;9.63;;;2.75;;
76892;SDS011;65854;51.466;7.260;2022-12-18T13:06:23;8.00;;;2.90;;
76892;SDS011;65854;51.466;7.260;2022-12-18T13:09:07;9.18;;;3.03;;
76892;SDS011;65854;51.466;7.260;2022-12-18T13:11:43;8.65;;;3.00;;
76892;SDS011;65854;51.466;7.260;2022-12-18T13:14:33;8.23;;;3.10;;
76892;SDS011;65854;51.466;7.260;2022-12-18T13:17:14;10.18;;;3.40;;
76892;SDS011;65854;51.466;7.260;2022-12-18T13:19:49;7.78;;;3.15;;
76892;SDS011;65854;51.466;7.260;2022-12-18T13:22:23;10.65;;;3.30;;
76892;SDS011;65854;51.466;7.260;2022-12-18T13:24:54;8.38;;;3.28;;
76892;SDS011;65854;51.466;7.260;2022-12-18T13:35:39;9.67;;;3.50;;
76892;SDS011;65854;51.466;7.260;2022-12-18T13:45:46;10.90;;;4.25;;
76892;SDS011;65854;51.466;7.260;2022-12-18T13:48:21;10.88;;;4.40;;
76892;SDS011;65854;51.466;7.260;2022-12-18T13:50:50;10.07;;;3.95;;
76892;SDS011;65854;51.466;7.260;2022-12-18T13:53:21;11.80;;;4.20;;
76892;SDS011;65854;51.466;7.260;2022-12-18T13:56:03;10.20;;;4.15;;
76892;SDS011;65854;51.466;7.260;2022-12-18T13:58:30;14.50;;;4.55;;
76892;SDS011;65854;51.466;7.260;2022-12-18T14:00:55;11.45;;;4.55;;
76892;SDS011;65854;51.466;7.260;2022-12-18T14:03:25;11.43;;;4.60;;
76892;SDS011;65854;51.466;7.260;2022-12-18T14:05:53;11.40;;;4.40;;
76892;SDS011;65854;51.466;7.260;2022-12-18T14:08:21;10.52;;;4.40;;
76892;SDS011;65854;51.466;7.260;2022-12-18T14:10:49;10.88;;;4.80;;
76892;SDS011;65854;51.466;7.260;2022-12-18T14:13:21;12.25;;;5.15;;
76892;SDS011;65854;51.466;7.260;2022-12-18T14:16:05;11.30;;;4.70;;
76892;SDS011;65854;51.466;7.260;2022-12-18T14:18:41;12.02;;;4.40;;
76892;SDS011;65854;51.466;7.260;2022-12-18T14:21:18;11.98;;;5.00;;
76892;SDS011;65854;51.466;7.260;2022-12-18T14:26:43;13.40;;;4.85;;
76892;SDS011;65854;51.466;7.260;2022-12-18T14:29:19;12.47;;;4.70;;
76892;SDS011;65854;51.466;7.260;2022-12-18T14:34:35;13.82;;;5.32;;
76892;SDS011;65854;51.466;7.260;2022-12-18T14:37:01;12.90;;;4.93;;
76892;SDS011;65854;51.466;7.260;2022-12-18T14:39:27;16.10;;;4.83;;
76892;SDS011;65854;51.466;7.260;2022-12-18T14:41:53;13.50;;;5.18;;
76892;SDS011;65854;51.466;7.260;2022-12-18T14:44:19;16.40;;;5.57;;
76892;SDS011;65854;51.466;7.260;2022-12-18T14:46:46;12.70;;;4.82;;
76892;SDS011;65854;51.466;7.260;2022-12-18T14:49:27;13.45;;;5.00;;
76892;SDS011;65854;51.466;7.260;2022-12-18T14:52:00;12.02;;;5.18;;
76892;SDS011;65854;51.466;7.260;2022-12-18T14:54:28;13.10;;;5.20;;
76892;SDS011;65854;51.466;7.260;2022-12-18T14:57:04;11.52;;;4.88;;
76892;SDS011;65854;51.466;7.260;2022-12-18T14:59:37;12.90;;;5.13;;
76892;SDS011;65854;51.466;7.260;2022-12-18T15:04:59;12.93;;;5.15;;
76892;SDS011;65854;51.466;7.260;2022-12-18T15:07:53;31.10;;;6.53;;
76892;SDS011;65854;51.466;7.260;2022-12-18T15:10:21;15.35;;;5.72;;
76892;SDS011;65854;51.466;7.260;2022-12-18T15:20:43;13.88;;;5.72;;
76892;SDS011;65854;51.466;7.260;2022-12-18T15:23:17;13.57;;;5.88;;
76892;SDS011;65854;51.466;7.260;2022-12-18T15:25:58;16.30;;;6.47;;
76892;SDS011;65854;51.466;7.260;2022-12-18T15:28:39;14.83;;;6.07;;
76892;SDS011;65854;51.466;7.260;2022-12-18T15:33:41;13.80;;;5.97;;
76892;SDS011;65854;51.466;7.260;2022-12-18T15:36:17;13.73;;;5.97;;
76892;SDS011;65854;51.466;7.260;2022-12-18T15:38:46;15.75;;;6.07;;
76892;SDS011;65854;51.466;7.260;2022-12-18T15:41:13;13.80;;;6.43;;
76892;SDS011;65854;51.466;7.260;2022-12-18T15:43:41;16.03;;;7.00;;
76892;SDS011;65854;51.466;7.260;2022-12-18T15:46:23;14.43;;;6.30;;
76892;SDS011;65854;51.466;7.260;2022-12-18T15:48:53;18.55;;;7.00;;
76892;SDS011;65854;51.466;7.260;2022-12-18T15:51:21;15.57;;;6.80;;
76892;SDS011;65854;51.466;7.260;2022-12-18T15:53:50;16.98;;;6.55;;
76892;SDS011;65854;51.466;7.260;2022-12-18T15:56:18;16.07;;;6.70;;
76892;SDS011;65854;51.466;7.260;2022-12-18T15:59:04;19.50;;;7.38;;
76892;SDS011;65854;51.466;7.260;2022-12-18T16:01:37;17.30;;;7.07;;
76892;SDS011;65854;51.466;7.260;2022-12-18T16:04:03;16.25;;;7.18;;
76892;SDS011;65854;51.466;7.260;2022-12-18T16:06:29;19.33;;;7.47;;
76892;SDS011;65854;51.466;7.260;2022-12-18T16:08:54;19.15;;;7.53;;
76892;SDS011;65854;51.466;7.260;2022-12-18T16:11:21;16.90;;;7.63;;
76892;SDS011;65854;51.466;7.260;2022-12-18T16:16:45;18.03;;;8.03;;
76892;SDS011;65854;51.466;7.260;2022-12-18T16:19:12;18.92;;;7.70;;
76892;SDS011;65854;51.466;7.260;2022-12-18T16:21:38;17.63;;;7.63;;
76892;SDS011;65854;51.466;7.260;2022-12-18T16:24:04;18.30;;;7.85;;
76892;SDS011;65854;51.466;7.260;2022-12-18T16:26:30;18.43;;;7.47;;
76892;SDS011;65854;51.466;7.260;2022-12-18T16:28:57;17.67;;;7.90;;
76892;SDS011;65854;51.466;7.260;2022-12-18T16:31:22;19.45;;;7.50;;
76892;SDS011;65854;51.466;7.260;2022-12-18T16:33:48;18.53;;;7.83;;
76892;SDS011;65854;51.466;7.260;2022-12-18T16:36:13;17.23;;;7.30;;